createdAt,value
2017-08-29T00:01:16.604Z,20.43
2017-08-29T00:03:45.697Z,20.42
2017-08-29T00:06:14.753Z,20.43
2017-08-29T00:08:43.843Z,20.45
2017-08-29T00:11:12.882Z,20.45
2017-08-29T00:13:42.916Z,20.43
2017-08-29T00:16:11.992Z,20.43
2017-08-29T00:18:41.080Z,20.45
2017-08-29T00:21:10.540Z,20.49
2017-08-29T00:23:39.637Z,20.48
2017-08-29T00:26:08.734Z,20.48
2017-08-29T00:28:37.775Z,20.48
2017-08-29T00:31:06.853Z,20.45
2017-08-29T00:33:35.908Z,20.44
2017-08-29T00:36:04.997Z,20.41
2017-08-29T00:38:34.051Z,20.42
2017-08-29T00:41:03.111Z,20.43
2017-08-29T00:43:32.172Z,20.44
2017-08-29T00:46:01.252Z,20.43
2017-08-29T00:48:30.320Z,20.39
2017-08-29T00:50:59.404Z,20.40
2017-08-29T00:53:28.499Z,20.43
2017-08-29T00:55:57.543Z,20.44
2017-08-29T00:58:26.640Z,20.43
2017-08-29T01:00:55.715Z,20.37
2017-08-29T01:03:25.530Z,20.39
2017-08-29T01:05:54.620Z,20.36
2017-08-29T01:08:23.704Z,20.36
2017-08-29T01:10:52.910Z,20.31
2017-08-29T01:13:21.937Z,20.33
2017-08-29T01:15:51.131Z,20.30
2017-08-29T01:18:20.239Z,20.31
2017-08-29T01:20:49.275Z,20.35
2017-08-29T01:23:18.344Z,20.35
2017-08-29T01:25:47.422Z,20.33
2017-08-29T01:28:16.513Z,20.34
2017-08-29T01:30:45.569Z,20.35
2017-08-29T01:33:14.625Z,20.38
2017-08-29T01:35:43.730Z,20.40
2017-08-29T01:38:12.809Z,20.39
2017-08-29T01:40:41.914Z,20.38
2017-08-29T01:43:10.988Z,20.40
2017-08-29T01:45:40.101Z,20.38
2017-08-29T01:48:09.245Z,20.39
2017-08-29T01:50:38.360Z,20.38
2017-08-29T01:53:07.459Z,20.38
2017-08-29T01:55:36.528Z,20.37
2017-08-29T01:58:05.741Z,20.38
2017-08-29T02:00:35.558Z,20.37
2017-08-29T02:03:04.606Z,20.40
2017-08-29T02:05:33.688Z,20.39
2017-08-29T02:08:02.767Z,20.37
2017-08-29T02:10:31.856Z,20.35
2017-08-29T02:13:00.892Z,20.35
2017-08-29T02:15:29.979Z,20.35
2017-08-29T02:17:59.040Z,20.33
2017-08-29T02:20:28.107Z,20.30
2017-08-29T02:22:57.500Z,20.33
2017-08-29T02:25:26.554Z,20.28
2017-08-29T02:27:55.613Z,20.31
2017-08-29T02:30:24.712Z,20.34
2017-08-29T02:32:53.788Z,20.34
2017-08-29T02:35:22.862Z,20.38
2017-08-29T02:37:51.960Z,20.40
2017-08-29T02:40:21.061Z,20.41
2017-08-29T02:42:50.100Z,20.41
2017-08-29T02:45:19.196Z,20.40
2017-08-29T02:47:48.252Z,20.45
2017-08-29T02:50:17.332Z,20.48
2017-08-29T02:52:46.368Z,20.50
2017-08-29T02:55:15.486Z,20.51
2017-08-29T02:57:44.581Z,20.48
2017-08-29T03:00:14.574Z,20.51
2017-08-29T03:02:43.655Z,20.52
2017-08-29T03:05:12.739Z,20.55
2017-08-29T03:07:41.791Z,20.52
2017-08-29T03:10:10.869Z,20.58
2017-08-29T03:12:39.912Z,20.59
2017-08-29T03:15:09.048Z,20.62
2017-08-29T03:17:38.125Z,20.61
2017-08-29T03:20:07.215Z,20.57
2017-08-29T03:22:36.404Z,20.62
2017-08-29T03:25:05.475Z,20.61
2017-08-29T03:27:34.568Z,20.62
2017-08-29T03:30:03.642Z,20.62
2017-08-29T03:32:32.705Z,20.61
2017-08-29T03:35:02.719Z,20.60
2017-08-29T03:37:31.887Z,20.63
2017-08-29T03:40:01.082Z,20.62
2017-08-29T03:42:30.216Z,20.63
2017-08-29T03:44:59.304Z,20.62
2017-08-29T03:47:28.541Z,20.63
2017-08-29T03:49:57.613Z,20.62
2017-08-29T03:52:26.688Z,20.60
2017-08-29T03:54:55.913Z,20.59
2017-08-29T03:57:24.971Z,20.59
2017-08-29T03:59:54.033Z,20.56
2017-08-29T04:02:23.089Z,20.52
2017-08-29T04:04:52.469Z,20.52
2017-08-29T04:07:21.511Z,20.53
2017-08-29T04:09:50.572Z,20.50
2017-08-29T04:12:19.961Z,20.47
2017-08-29T04:14:49.090Z,20.40
2017-08-29T04:17:18.133Z,20.37
2017-08-29T04:19:47.209Z,20.36
2017-08-29T04:22:16.297Z,20.33
2017-08-29T04:24:45.369Z,20.33
2017-08-29T04:27:14.470Z,20.29
2017-08-29T04:29:43.527Z,20.28
2017-08-29T04:32:12.599Z,20.25
2017-08-29T04:34:41.677Z,20.23
2017-08-29T04:37:11.527Z,20.19
2017-08-29T04:39:40.595Z,20.19
2017-08-29T04:42:09.664Z,20.18
2017-08-29T04:44:38.720Z,20.15
2017-08-29T04:47:07.788Z,20.15
2017-08-29T04:49:36.861Z,20.12
2017-08-29T04:52:05.959Z,20.11
2017-08-29T04:54:35.004Z,20.11
2017-08-29T04:57:04.828Z,20.11
2017-08-29T04:59:33.889Z,20.09
2017-08-29T05:02:02.953Z,20.10
2017-08-29T05:04:32.034Z,20.13
2017-08-29T05:07:01.859Z,20.13
2017-08-29T05:09:30.939Z,20.13
2017-08-29T05:12:00.012Z,20.15
2017-08-29T05:14:29.860Z,20.15
2017-08-29T05:16:58.927Z,20.17
2017-08-29T05:19:28.015Z,20.19
2017-08-29T05:21:57.939Z,20.20
2017-08-29T05:24:27.012Z,20.23
2017-08-29T05:26:56.860Z,20.28
2017-08-29T05:29:26.069Z,20.32
2017-08-29T05:31:55.160Z,20.35
2017-08-29T05:34:24.230Z,20.43
2017-08-29T05:36:54.073Z,20.53
2017-08-29T05:39:23.152Z,20.57
2017-08-29T05:41:52.227Z,20.63
2017-08-29T05:44:21.336Z,20.66
2017-08-29T05:46:50.441Z,20.64
2017-08-29T05:49:19.492Z,20.66
2017-08-29T05:51:48.565Z,20.63
2017-08-29T05:54:18.165Z,20.67
2017-08-29T05:56:47.232Z,20.72
2017-08-29T05:59:16.327Z,20.73
2017-08-29T06:01:45.419Z,20.79
2017-08-29T06:04:14.533Z,20.78
2017-08-29T06:06:43.608Z,20.80
2017-08-29T06:09:12.702Z,20.84
2017-08-29T06:11:41.804Z,20.85
2017-08-29T06:14:10.873Z,20.90
2017-08-29T06:16:39.932Z,20.93
2017-08-29T06:19:09.020Z,20.97
2017-08-29T06:21:38.085Z,20.98
2017-08-29T06:24:07.143Z,21.07
2017-08-29T06:26:36.217Z,21.14
2017-08-29T06:29:05.279Z,21.17
2017-08-29T06:31:34.368Z,21.24
2017-08-29T06:34:03.454Z,21.29
2017-08-29T06:36:32.533Z,21.33
2017-08-29T06:39:01.588Z,21.41
2017-08-29T06:41:30.683Z,21.45
2017-08-29T06:43:59.728Z,21.52
2017-08-29T06:46:29.588Z,21.61
2017-08-29T06:48:58.657Z,21.70
2017-08-29T06:51:27.746Z,21.84
2017-08-29T06:53:56.836Z,21.93
2017-08-29T06:56:25.932Z,22.00
2017-08-29T06:58:55.003Z,22.12
2017-08-29T07:01:24.065Z,22.23
2017-08-29T07:03:53.145Z,22.38
2017-08-29T07:06:22.187Z,22.47
2017-08-29T07:08:51.316Z,22.59
2017-08-29T07:11:20.646Z,22.70
2017-08-29T07:13:49.785Z,22.79
2017-08-29T07:16:18.926Z,22.85
2017-08-29T07:18:48.148Z,22.94
2017-08-29T07:21:17.181Z,23.11
2017-08-29T07:23:47.026Z,23.24
2017-08-29T07:26:16.077Z,23.32
2017-08-29T07:28:45.141Z,23.45
2017-08-29T07:31:14.246Z,23.54
2017-08-29T07:33:43.335Z,23.63
2017-08-29T07:36:12.372Z,23.70
2017-08-29T07:38:41.447Z,23.82
2017-08-29T07:41:10.504Z,23.96
2017-08-29T07:43:39.555Z,24.05
2017-08-29T07:46:09.409Z,24.12
2017-08-29T07:48:38.509Z,24.21
2017-08-29T07:51:07.660Z,24.31
2017-08-29T07:53:36.707Z,24.38
2017-08-29T07:56:05.816Z,24.47
2017-08-29T07:58:34.893Z,24.64
2017-08-29T08:01:03.989Z,24.75
2017-08-29T08:03:33.039Z,24.86
2017-08-29T08:06:02.157Z,24.96
2017-08-29T08:08:31.317Z,25.05
2017-08-29T08:11:00.370Z,25.17
2017-08-29T08:13:29.449Z,25.23
2017-08-29T08:15:58.727Z,25.38
2017-08-29T08:18:27.928Z,25.55
2017-08-29T08:20:56.980Z,25.68
2017-08-29T08:23:26.049Z,25.87
2017-08-29T08:25:55.108Z,26.04
2017-08-29T08:28:24.271Z,26.17
2017-08-29T08:30:53.356Z,26.35
2017-08-29T08:33:22.424Z,26.50
2017-08-29T08:35:51.591Z,26.60
2017-08-29T08:38:21.436Z,26.71
2017-08-29T08:40:50.532Z,26.87
2017-08-29T08:43:19.585Z,27.03
2017-08-29T08:45:48.847Z,27.21
2017-08-29T08:48:18.115Z,27.31
2017-08-29T08:50:47.161Z,27.43
2017-08-29T08:53:16.248Z,27.56
2017-08-29T08:55:45.423Z,27.70
2017-08-29T08:58:14.544Z,27.80
2017-08-29T09:00:43.625Z,27.89
2017-08-29T09:03:12.700Z,27.91
2017-08-29T09:05:41.759Z,27.98
2017-08-29T09:08:11.579Z,28.07
2017-08-29T09:10:40.645Z,28.22
2017-08-29T09:13:09.764Z,28.36
2017-08-29T09:15:38.824Z,28.40
2017-08-29T09:18:07.895Z,28.51
2017-08-29T09:20:36.991Z,28.62
2017-08-29T09:23:06.052Z,28.76
2017-08-29T09:25:35.276Z,28.85
2017-08-29T09:28:04.322Z,28.88
2017-08-29T09:30:33.384Z,28.87
2017-08-29T09:33:02.514Z,28.71
2017-08-29T09:35:31.553Z,28.75
2017-08-29T09:38:00.636Z,28.74
2017-08-29T09:40:29.706Z,28.85
2017-08-29T09:42:59.077Z,28.93
2017-08-29T09:45:28.176Z,29.04
2017-08-29T09:47:57.269Z,29.17
2017-08-29T09:50:26.350Z,29.39
2017-08-29T09:52:55.453Z,29.61
2017-08-29T09:55:24.565Z,29.70
2017-08-29T09:57:53.614Z,29.78
2017-08-29T10:00:22.762Z,29.85
2017-08-29T10:02:51.978Z,29.93
2017-08-29T10:05:21.398Z,29.95
2017-08-29T10:07:50.459Z,29.99
2017-08-29T10:10:21.320Z,30.08
2017-08-29T10:12:50.577Z,30.21
2017-08-29T10:15:19.656Z,30.33
2017-08-29T10:17:48.847Z,30.47
2017-08-29T10:20:18.164Z,30.70
2017-08-29T10:22:47.235Z,30.76
2017-08-29T10:25:16.357Z,30.77
2017-08-29T10:27:47.254Z,30.82
2017-08-29T10:30:16.512Z,30.89
2017-08-29T10:32:45.601Z,30.98
2017-08-29T10:35:14.685Z,31.10
2017-08-29T10:37:43.796Z,31.09
2017-08-29T10:40:12.899Z,30.95
2017-08-29T10:42:42.129Z,30.88
2017-08-29T10:45:11.246Z,30.78
2017-08-29T10:47:40.305Z,30.69
2017-08-29T10:50:09.649Z,30.70
2017-08-29T10:52:38.717Z,30.77
2017-08-29T10:55:07.791Z,30.79
2017-08-29T10:57:36.857Z,30.77
2017-08-29T11:00:05.963Z,30.67
2017-08-29T11:02:35.040Z,30.60
2017-08-29T11:05:04.088Z,30.44
2017-08-29T11:07:33.174Z,30.21
2017-08-29T11:10:02.249Z,30.05
2017-08-29T11:12:34.961Z,29.99
2017-08-29T11:15:07.019Z,30.08
2017-08-29T11:17:36.892Z,30.21
2017-08-29T11:20:05.976Z,30.33
2017-08-29T11:22:35.047Z,30.46
2017-08-29T11:25:04.128Z,30.57
2017-08-29T11:27:33.255Z,30.63
2017-08-29T11:30:03.199Z,30.66
2017-08-29T11:32:32.324Z,30.63
2017-08-29T11:35:01.383Z,30.71
2017-08-29T11:37:30.476Z,30.85
2017-08-29T11:39:59.535Z,30.97
2017-08-29T11:42:28.625Z,31.00
2017-08-29T11:44:57.686Z,30.94
2017-08-29T11:47:26.840Z,30.95
2017-08-29T11:49:55.864Z,30.76
2017-08-29T11:52:25.032Z,30.58
2017-08-29T11:54:54.103Z,30.52
2017-08-29T11:57:23.171Z,30.54
2017-08-29T11:59:52.295Z,30.47
2017-08-29T12:02:21.408Z,30.43
2017-08-29T12:04:50.458Z,30.52
2017-08-29T12:07:19.518Z,30.63
2017-08-29T12:09:48.592Z,30.74
2017-08-29T12:12:17.666Z,30.85
2017-08-29T12:14:46.731Z,30.81
2017-08-29T12:17:15.871Z,30.85
2017-08-29T12:19:44.957Z,30.90
2017-08-29T12:22:14.136Z,30.90
2017-08-29T12:24:43.221Z,30.94
2017-08-29T12:27:16.395Z,31.03
2017-08-29T12:29:46.409Z,31.02
2017-08-29T12:32:15.484Z,31.08
2017-08-29T12:34:44.544Z,31.04
2017-08-29T12:37:13.617Z,30.99
2017-08-29T12:39:43.441Z,30.88
2017-08-29T12:42:12.494Z,30.95
2017-08-29T12:44:41.605Z,31.04
2017-08-29T12:47:10.771Z,31.05
2017-08-29T12:49:39.886Z,31.10
2017-08-29T12:52:08.946Z,31.14
2017-08-29T12:54:38.020Z,31.21
2017-08-29T12:57:08.937Z,31.22
2017-08-29T12:59:37.968Z,31.21
2017-08-29T13:02:07.067Z,31.21
2017-08-29T13:04:36.099Z,31.11
2017-08-29T13:07:05.345Z,31.11
2017-08-29T13:09:34.396Z,31.20
2017-08-29T13:12:03.608Z,31.28
2017-08-29T13:14:32.675Z,31.31
2017-08-29T13:17:02.563Z,31.29
2017-08-29T13:19:31.650Z,31.13
2017-08-29T13:22:00.704Z,31.09
2017-08-29T13:24:29.792Z,31.05
2017-08-29T13:26:58.938Z,31.01
2017-08-29T13:29:28.017Z,30.94
2017-08-29T13:31:57.072Z,30.91
2017-08-29T13:34:26.176Z,30.92
2017-08-29T13:36:55.253Z,30.93
2017-08-29T13:39:24.283Z,30.93
2017-08-29T13:41:53.362Z,30.86
2017-08-29T13:44:22.415Z,30.88
2017-08-29T13:46:51.573Z,30.91
2017-08-29T13:49:20.614Z,30.93
2017-08-29T13:51:49.664Z,30.97
2017-08-29T13:54:18.865Z,31.01
2017-08-29T13:56:47.940Z,31.05
2017-08-29T13:59:16.993Z,31.07
2017-08-29T14:01:46.050Z,31.15
2017-08-29T14:04:15.095Z,31.23
2017-08-29T14:06:44.175Z,31.21
2017-08-29T14:09:13.273Z,31.24
2017-08-29T14:11:42.306Z,31.25
2017-08-29T14:14:11.363Z,31.21
2017-08-29T14:16:40.486Z,31.20
2017-08-29T14:19:09.738Z,31.24
2017-08-29T14:21:38.823Z,31.23
2017-08-29T14:24:07.898Z,31.25
2017-08-29T14:26:36.970Z,31.28
2017-08-29T14:29:06.131Z,31.28
2017-08-29T14:31:35.234Z,31.21
2017-08-29T14:34:04.331Z,31.20
2017-08-29T14:36:33.385Z,31.18
2017-08-29T14:39:02.749Z,31.19
2017-08-29T14:41:31.835Z,31.16
2017-08-29T14:44:00.884Z,31.12
2017-08-29T14:46:47.788Z,31.06
2017-08-29T14:49:16.864Z,31.10
2017-08-29T14:51:45.952Z,31.11
2017-08-29T14:54:15.058Z,31.10
2017-08-29T14:56:44.161Z,31.13
2017-08-29T14:59:13.225Z,31.10
2017-08-29T15:01:42.466Z,31.15
2017-08-29T15:04:11.559Z,31.15
2017-08-29T15:06:40.676Z,31.19
2017-08-29T15:09:09.776Z,31.18
2017-08-29T15:11:38.811Z,31.14
2017-08-29T15:14:08.133Z,31.13
2017-08-29T15:16:37.205Z,31.11
2017-08-29T15:19:06.269Z,31.16
2017-08-29T15:21:35.390Z,31.09
2017-08-29T15:24:04.464Z,31.00
2017-08-29T15:26:33.528Z,30.96
2017-08-29T15:29:02.620Z,30.96
2017-08-29T15:31:31.768Z,30.90
2017-08-29T15:34:00.854Z,30.92
2017-08-29T15:36:29.899Z,30.98
2017-08-29T15:38:59.000Z,30.95
2017-08-29T15:41:28.210Z,30.88
2017-08-29T15:43:57.292Z,30.82
2017-08-29T15:46:26.375Z,30.79
2017-08-29T15:48:55.462Z,30.78
2017-08-29T15:51:24.540Z,30.83
2017-08-29T15:53:53.675Z,30.83
2017-08-29T15:56:23.515Z,30.78
2017-08-29T15:58:52.587Z,30.76
2017-08-29T16:01:22.421Z,30.71
2017-08-29T16:03:51.476Z,30.65
2017-08-29T16:06:20.540Z,30.60
2017-08-29T16:08:49.622Z,30.50
2017-08-29T16:11:18.712Z,30.46
2017-08-29T16:13:47.815Z,30.43
2017-08-29T16:16:16.869Z,30.41
2017-08-29T16:18:45.957Z,30.38
2017-08-29T16:21:15.073Z,30.37
2017-08-29T16:23:44.168Z,30.39
2017-08-29T16:26:13.244Z,30.30
2017-08-29T16:28:42.326Z,30.29
2017-08-29T16:31:11.427Z,30.29
2017-08-29T16:33:40.483Z,30.25
2017-08-29T16:36:09.573Z,30.16
2017-08-29T16:38:38.634Z,30.19
2017-08-29T16:41:08.363Z,30.19
2017-08-29T16:43:37.432Z,30.17
2017-08-29T16:46:06.490Z,30.19
2017-08-29T16:48:35.584Z,30.11
2017-08-29T16:51:04.667Z,30.04
2017-08-29T16:53:33.719Z,30.02
2017-08-29T16:56:02.764Z,29.96
2017-08-29T16:58:32.161Z,29.96
2017-08-29T17:01:01.229Z,29.92
2017-08-29T17:03:30.290Z,29.86
2017-08-29T17:05:59.388Z,29.78
2017-08-29T17:08:29.161Z,29.78
2017-08-29T17:10:58.214Z,29.78
2017-08-29T17:13:27.278Z,29.73
2017-08-29T17:15:56.353Z,29.67
2017-08-29T17:18:25.642Z,29.58
2017-08-29T17:20:54.778Z,29.55
2017-08-29T17:23:25.368Z,29.50
2017-08-29T17:25:54.431Z,29.48
2017-08-29T17:28:23.578Z,29.43
2017-08-29T17:30:52.615Z,29.34
2017-08-29T17:33:21.725Z,29.29
2017-08-29T17:35:50.812Z,29.24
2017-08-29T17:38:19.883Z,29.17
2017-08-29T17:40:48.955Z,29.11
2017-08-29T17:43:18.019Z,29.05
2017-08-29T17:45:47.138Z,29.02
2017-08-29T17:48:16.193Z,28.97
2017-08-29T17:50:45.234Z,28.94
2017-08-29T17:53:14.311Z,28.87
2017-08-29T17:55:43.388Z,28.80
2017-08-29T17:58:12.499Z,28.76
2017-08-29T18:00:41.612Z,28.65
2017-08-29T18:03:10.654Z,28.65
2017-08-29T18:05:39.696Z,28.60
2017-08-29T18:08:08.785Z,28.58
2017-08-29T18:10:37.865Z,28.54
2017-08-29T18:13:06.960Z,28.48
2017-08-29T18:15:35.992Z,28.47
2017-08-29T18:18:06.022Z,28.39
2017-08-29T18:20:35.097Z,28.26
2017-08-29T18:23:04.295Z,28.20
2017-08-29T18:25:33.700Z,28.10
2017-08-29T18:28:02.762Z,27.97
2017-08-29T18:30:31.828Z,27.86
2017-08-29T18:33:00.898Z,27.80
2017-08-29T18:35:30.087Z,27.69
2017-08-29T18:37:59.166Z,27.59
2017-08-29T18:40:28.204Z,27.55
2017-08-29T18:42:57.634Z,27.51
2017-08-29T18:45:26.745Z,27.42
2017-08-29T18:47:55.837Z,27.35
2017-08-29T18:50:24.910Z,27.30
2017-08-29T18:52:53.969Z,27.24
2017-08-29T18:55:23.471Z,27.20
2017-08-29T18:57:53.669Z,27.15
2017-08-29T19:00:22.715Z,27.09
2017-08-29T19:02:51.775Z,27.04
2017-08-29T19:05:20.867Z,26.98
2017-08-29T19:07:51.204Z,26.93
2017-08-29T19:10:20.293Z,26.89
2017-08-29T19:12:50.143Z,26.84
2017-08-29T19:15:20.206Z,26.81
2017-08-29T19:17:50.453Z,26.81
2017-08-29T19:20:19.517Z,26.77
2017-08-29T19:22:48.583Z,26.76
2017-08-29T19:25:17.660Z,26.73
2017-08-29T19:27:46.827Z,26.69
2017-08-29T19:30:15.901Z,26.65
2017-08-29T19:32:45.027Z,26.61
2017-08-29T19:35:14.138Z,26.56
2017-08-29T19:37:43.512Z,26.53
2017-08-29T19:40:12.761Z,26.44
2017-08-29T19:42:41.840Z,26.38
2017-08-29T19:45:10.912Z,26.30
2017-08-29T19:47:39.998Z,26.27
2017-08-29T19:50:09.091Z,26.28
2017-08-29T19:52:38.227Z,26.24
2017-08-29T19:55:07.534Z,26.22
2017-08-29T19:57:36.909Z,26.18
2017-08-29T20:00:06.013Z,26.12
2017-08-29T20:02:35.092Z,26.08
2017-08-29T20:05:04.209Z,26.07
2017-08-29T20:07:33.320Z,26.02
2017-08-29T20:10:02.426Z,25.96
2017-08-29T20:12:31.516Z,25.92
2017-08-29T20:15:00.595Z,25.89
2017-08-29T20:17:29.652Z,25.86
2017-08-29T20:19:58.760Z,25.84
2017-08-29T20:22:27.874Z,25.80
2017-08-29T20:24:56.967Z,25.76
2017-08-29T20:27:26.136Z,25.73
2017-08-29T20:29:55.190Z,25.67
2017-08-29T20:32:24.632Z,25.63
2017-08-29T20:34:53.693Z,25.62
2017-08-29T20:37:22.781Z,25.56
2017-08-29T20:39:51.966Z,25.53
2017-08-29T20:42:21.013Z,25.45
2017-08-29T20:44:50.104Z,25.41
2017-08-29T20:47:19.525Z,25.39
2017-08-29T20:49:48.676Z,25.36
2017-08-29T20:52:17.762Z,25.31
2017-08-29T20:54:47.089Z,25.24
2017-08-29T20:57:16.210Z,25.19
2017-08-29T20:59:45.335Z,25.21
2017-08-29T21:02:14.827Z,25.18
2017-08-29T21:04:43.960Z,25.14
2017-08-29T21:07:13.062Z,25.12
2017-08-29T21:09:42.141Z,25.10
2017-08-29T21:12:11.308Z,25.08
2017-08-29T21:14:40.389Z,25.00
2017-08-29T21:17:09.639Z,24.99
2017-08-29T21:19:38.719Z,24.94
2017-08-29T21:22:08.705Z,24.90
2017-08-29T21:24:37.789Z,24.85
2017-08-29T21:27:06.870Z,24.80
2017-08-29T21:29:35.964Z,24.76
2017-08-29T21:32:05.049Z,24.71
2017-08-29T21:34:34.110Z,24.67
2017-08-29T21:37:04.259Z,24.64
2017-08-29T21:39:33.333Z,24.66
2017-08-29T21:42:02.393Z,24.60
2017-08-29T21:44:31.484Z,24.60
2017-08-29T21:47:00.588Z,24.59
2017-08-29T21:49:29.666Z,24.59
2017-08-29T21:51:58.711Z,24.56
2017-08-29T21:54:27.817Z,24.55
2017-08-29T21:56:56.867Z,24.53
2017-08-29T21:59:25.929Z,24.52
2017-08-29T22:01:55.013Z,24.55
2017-08-29T22:04:24.089Z,24.54
2017-08-29T22:06:53.160Z,24.49
2017-08-29T22:09:22.204Z,24.49
2017-08-29T22:11:51.319Z,24.47
2017-08-29T22:14:20.408Z,24.48
2017-08-29T22:16:49.487Z,24.45
2017-08-29T22:19:18.914Z,24.43
2017-08-29T22:21:47.965Z,24.43
2017-08-29T22:24:17.032Z,24.42
2017-08-29T22:26:46.104Z,24.42
2017-08-29T22:29:15.236Z,24.40
2017-08-29T22:31:44.332Z,24.37
2017-08-29T22:34:13.412Z,24.35
2017-08-29T22:36:43.239Z,24.36
2017-08-29T22:39:12.375Z,24.34
2017-08-29T22:41:41.422Z,24.33
2017-08-29T22:44:10.501Z,24.34
2017-08-29T22:46:39.563Z,24.35
2017-08-29T22:49:08.633Z,24.33
2017-08-29T22:51:37.648Z,24.30
2017-08-29T22:54:06.762Z,24.30
2017-08-29T22:56:35.825Z,24.31
2017-08-29T22:59:04.889Z,24.33
2017-08-29T23:01:33.968Z,24.34
2017-08-29T23:04:03.354Z,24.32
2017-08-29T23:06:32.427Z,24.37
2017-08-29T23:09:01.499Z,24.37
2017-08-29T23:11:30.828Z,24.35
2017-08-29T23:13:59.908Z,24.31
2017-08-29T23:16:28.993Z,24.27
2017-08-29T23:18:58.333Z,24.30
2017-08-29T23:21:27.483Z,24.25
2017-08-29T23:23:56.727Z,24.24
2017-08-29T23:26:25.751Z,24.22
2017-08-29T23:28:54.830Z,24.22
2017-08-29T23:31:23.881Z,24.20
2017-08-29T23:33:52.997Z,24.17
2017-08-29T23:36:22.059Z,24.12
2017-08-29T23:38:51.097Z,24.13
2017-08-29T23:41:20.144Z,24.14
2017-08-29T23:43:49.204Z,24.10
2017-08-29T23:46:19.032Z,24.07
2017-08-29T23:48:48.097Z,24.06
2017-08-29T23:51:17.161Z,24.08
2017-08-29T23:53:46.194Z,24.07
2017-08-29T23:56:15.310Z,24.06
2017-08-29T23:58:44.697Z,24.06
